Worthington, Minnesota
Current Conditions -  °F | °C
As of 2:35 AM on Monday 22 Dec 2014 (Local Time) from KOTG Reporting Station
Overcast Overcast  
Wind Chill: 28°   Ceiling: 300
Heat Index: 37°   Visibility: 2.5mi
Dew Point: -11°   Wind: 16mph
Humidity: 12%   Direction: 160°SSE
Pressure: 29.56"   Gusts: NA
Location:  43.63°N, 95.62°W
Report Text: KOTG 220835Z AUTO 16014KT 2 1/2SM OVC003 03/M24 A2956 RMK AO1
Loading
Personal Weather Stations






























Interactive Weather Map New forecast layout! Learn more

10-Day Weather Forecast

Advertisements
Track Severe Weather on mobile